createdAt,value
2019-05-15T00:00:18.296Z,96.00
2019-05-15T00:03:24.960Z,95.50
2019-05-15T00:06:31.317Z,96.32
2019-05-15T00:09:41.794Z,96.95
2019-05-15T00:12:48.664Z,97.34
2019-05-15T00:16:05.505Z,96.95
2019-05-15T00:19:13.106Z,97.28
2019-05-15T00:22:20.491Z,97.44
2019-05-15T00:25:28.350Z,97.74
2019-05-15T00:28:35.691Z,97.68
2019-05-15T00:31:52.413Z,97.32
2019-05-15T00:35:09.633Z,97.93
2019-05-15T00:38:18.642Z,98.57
2019-05-15T00:41:27.879Z,98.27
2019-05-15T00:44:35.160Z,99.37
2019-05-15T00:47:42.761Z,99.43
2019-05-15T00:50:59.489Z,99.55
2019-05-15T00:54:08.277Z,99.73
2019-05-15T00:57:14.937Z,100.00
2019-05-15T01:00:40.020Z,100.00
2019-05-15T01:03:49.344Z,100.00
2019-05-15T01:07:08.158Z,100.00
2019-05-15T01:10:24.267Z,100.00
2019-05-15T01:13:40.915Z,100.00
2019-05-15T01:16:49.033Z,100.00
2019-05-15T01:19:58.712Z,100.00
2019-05-15T01:23:05.337Z,100.00
2019-05-15T01:26:12.815Z,100.00
2019-05-15T01:29:44.798Z,100.00
2019-05-15T01:32:48.651Z,100.00
2019-05-15T01:36:05.346Z,100.00
2019-05-15T01:39:21.928Z,100.00
2019-05-15T01:42:39.019Z,100.00
2019-05-15T01:45:55.744Z,100.00
2019-05-15T01:49:12.290Z,100.00
2019-05-15T01:52:35.048Z,100.00
2019-05-15T01:55:51.724Z,100.00
2019-05-15T01:59:14.344Z,100.00
2019-05-15T02:02:21.634Z,100.00
2019-05-15T02:05:39.102Z,100.00
2019-05-15T02:08:46.714Z,100.00
2019-05-15T02:11:54.117Z,100.00
2019-05-15T02:15:11.046Z,100.00
2019-05-15T02:18:19.227Z,100.00
2019-05-15T02:21:28.806Z,100.00
2019-05-15T02:24:36.118Z,100.00
2019-05-15T02:27:55.563Z,100.00
2019-05-15T02:31:13.429Z,100.00
2019-05-15T02:34:19.598Z,100.00
2019-05-15T02:37:29.412Z,100.00
2019-05-15T02:40:36.249Z,100.00
2019-05-15T02:43:43.933Z,100.00
2019-05-15T02:47:00.533Z,100.00
2019-05-15T02:50:20.437Z,100.00
2019-05-15T02:53:29.592Z,100.00
2019-05-15T02:56:54.371Z,100.00
2019-05-15T03:00:11.420Z,100.00
2019-05-15T03:03:20.560Z,100.00
2019-05-15T03:06:29.785Z,100.00
2019-05-15T03:09:39.870Z,100.00
2019-05-15T03:12:49.323Z,100.00
2019-05-15T03:16:11.054Z,100.00
2019-05-15T03:19:19.466Z,100.00
2019-05-15T03:22:42.211Z,100.00
2019-05-15T03:26:04.326Z,100.00
2019-05-15T03:29:11.213Z,100.00
2019-05-15T03:32:32.779Z,100.00
2019-05-15T03:35:32.178Z,100.00
2019-05-15T03:38:44.956Z,100.00
2019-05-15T03:42:01.950Z,100.00
2019-05-15T03:45:19.206Z,100.00
2019-05-15T03:48:28.791Z,100.00
2019-05-15T03:51:39.907Z,100.00
2019-05-15T03:54:44.906Z,100.00
2019-05-15T03:58:01.861Z,100.00
2019-05-15T04:01:36.766Z,100.00
2019-05-15T04:04:42.981Z,100.00
2019-05-15T04:08:00.070Z,100.00
2019-05-15T04:11:09.110Z,100.00
2019-05-15T04:14:19.374Z,100.00
2019-05-15T04:17:29.534Z,100.00
2019-05-15T04:20:35.530Z,100.00
2019-05-15T04:23:42.472Z,100.00
2019-05-15T04:27:10.652Z,100.00
2019-05-15T04:30:19.062Z,100.00
2019-05-15T04:33:28.988Z,100.00
2019-05-15T04:36:33.580Z,100.00
2019-05-15T04:39:50.960Z,100.00
2019-05-15T04:42:59.313Z,100.00
2019-05-15T04:46:19.407Z,100.00
2019-05-15T04:49:34.517Z,100.00
2019-05-15T04:52:43.389Z,100.00
2019-05-15T04:55:51.482Z,100.00
2019-05-15T04:59:00.095Z,100.00
2019-05-15T05:02:24.976Z,100.00
2019-05-15T05:05:34.378Z,100.00
2019-05-15T05:08:50.852Z,100.00
2019-05-15T05:12:19.112Z,100.00
2019-05-15T05:15:34.494Z,100.00
2019-05-15T05:18:51.163Z,100.00
2019-05-15T05:22:10.826Z,100.00
2019-05-15T05:25:18.265Z,100.00
2019-05-15T05:28:34.902Z,100.00
2019-05-15T05:31:54.497Z,100.00
2019-05-15T05:35:20.493Z,100.00
2019-05-15T05:38:28.212Z,100.00
2019-05-15T05:41:35.863Z,100.00
2019-05-15T05:44:43.139Z,100.00
2019-05-15T05:47:50.484Z,100.00
2019-05-15T05:50:58.250Z,100.00
2019-05-15T05:54:14.670Z,100.00
2019-05-15T05:57:31.456Z,100.00
2019-05-15T06:00:51.258Z,100.00
2019-05-15T06:04:18.420Z,100.00
2019-05-15T06:07:24.286Z,100.00
2019-05-15T06:10:31.724Z,100.00
2019-05-15T06:13:39.038Z,100.00
2019-05-15T06:16:48.231Z,100.00
2019-05-15T06:19:55.522Z,100.00
2019-05-15T06:23:01.106Z,100.00
2019-05-15T06:26:19.673Z,100.00
2019-05-15T06:29:37.839Z,100.00
2019-05-15T06:33:09.339Z,100.00
2019-05-15T06:36:20.807Z,100.00
2019-05-15T06:39:39.150Z,100.00
2019-05-15T06:43:01.841Z,100.00
2019-05-15T06:46:18.886Z,100.00
2019-05-15T06:49:28.485Z,100.00
2019-05-15T06:52:37.824Z,100.00
2019-05-15T06:55:44.550Z,100.00
2019-05-15T06:58:52.207Z,100.00
2019-05-15T07:02:18.886Z,100.00
2019-05-15T07:05:38.556Z,100.00
2019-05-15T07:08:45.997Z,100.00
2019-05-15T07:11:53.293Z,100.00
2019-05-15T07:15:00.775Z,100.00
2019-05-15T07:18:19.950Z,100.00
2019-05-15T07:21:38.731Z,100.00
2019-05-15T07:24:47.674Z,100.00
2019-05-15T07:27:54.653Z,100.00
2019-05-15T07:31:02.073Z,100.00
2019-05-15T07:34:09.346Z,100.00
2019-05-15T07:37:19.048Z,100.00
2019-05-15T07:40:28.806Z,100.00
2019-05-15T07:43:35.226Z,97.97
2019-05-15T07:46:42.612Z,95.90
2019-05-15T07:49:50.153Z,96.67
2019-05-15T07:52:59.075Z,97.06
2019-05-15T07:56:18.006Z,98.18
2019-05-15T07:59:23.298Z,96.89
2019-05-15T08:02:40.084Z,93.17
2019-05-15T08:06:05.547Z,92.79
2019-05-15T08:09:11.203Z,89.22
2019-05-15T08:12:28.366Z,89.06
2019-05-15T08:15:37.975Z,90.14
2019-05-15T08:18:45.088Z,91.23
2019-05-15T08:21:52.483Z,87.90
2019-05-15T08:25:00.020Z,88.60
2019-05-15T08:28:25.126Z,87.02
2019-05-15T08:31:31.080Z,82.54
2019-05-15T08:34:48.039Z,82.65
2019-05-15T08:37:55.503Z,86.64
2019-05-15T08:41:02.748Z,85.15
2019-05-15T08:44:10.061Z,81.61
2019-05-15T08:47:19.152Z,82.40
2019-05-15T08:50:28.733Z,82.04
2019-05-15T08:53:53.938Z,81.40
2019-05-15T08:57:01.205Z,81.05
2019-05-15T09:00:20.094Z,78.83
2019-05-15T09:03:38.056Z,77.85
2019-05-15T09:06:45.629Z,77.66
2019-05-15T09:10:09.173Z,75.80
2019-05-15T09:13:15.042Z,74.60
2019-05-15T09:16:22.393Z,70.67
2019-05-15T09:19:29.765Z,72.10
2019-05-15T09:22:48.996Z,70.53
2019-05-15T09:26:05.236Z,69.61
2019-05-15T09:29:11.446Z,70.73
2019-05-15T09:32:19.297Z,71.33
2019-05-15T09:35:25.180Z,68.97
2019-05-15T09:38:44.685Z,69.53
2019-05-15T09:42:04.021Z,67.98
2019-05-15T09:45:11.545Z,71.03
2019-05-15T09:48:19.920Z,68.94
2019-05-15T09:51:39.172Z,69.08
2019-05-15T09:54:56.104Z,67.37
2019-05-15T09:58:14.140Z,69.62
2019-05-15T10:01:21.482Z,67.84
2019-05-15T10:04:49.593Z,67.38
2019-05-15T10:07:56.483Z,68.15
2019-05-15T10:11:03.915Z,71.11
2019-05-15T10:14:11.371Z,68.64
2019-05-15T10:17:18.973Z,65.19
2019-05-15T10:20:28.960Z,68.01
2019-05-15T10:23:49.395Z,64.45
2019-05-15T10:27:05.316Z,62.39
2019-05-15T10:30:29.299Z,66.62
2019-05-15T10:33:46.205Z,68.33
2019-05-15T10:37:05.291Z,63.94
2019-05-15T10:40:22.183Z,65.24
2019-05-15T10:43:28.855Z,66.17
2019-05-15T10:46:38.247Z,68.38
2019-05-15T10:49:45.333Z,67.50
2019-05-15T10:52:52.618Z,68.18
2019-05-15T10:56:09.276Z,69.96
2019-05-15T10:59:18.113Z,66.04
2019-05-15T11:02:24.924Z,67.99
2019-05-15T11:05:43.886Z,64.48
2019-05-15T11:08:40.993Z,67.15
2019-05-15T11:11:51.465Z,65.47
2019-05-15T11:15:11.361Z,66.60
2019-05-15T11:18:30.838Z,65.79
2019-05-15T11:21:48.572Z,66.10
2019-05-15T11:25:05.009Z,66.14
2019-05-15T11:28:24.444Z,64.46
2019-05-15T11:31:41.197Z,65.46
2019-05-15T11:34:58.310Z,64.65
2019-05-15T11:38:09.657Z,64.38
2019-05-15T11:41:18.419Z,66.45
2019-05-15T11:44:22.924Z,64.07
2019-05-15T11:47:40.304Z,65.37
2019-05-15T11:50:46.925Z,64.27
2019-05-15T11:54:03.343Z,63.54
2019-05-15T11:57:40.990Z,66.51
2019-05-15T12:00:49.135Z,67.59
2019-05-15T12:03:54.184Z,64.88
2019-05-15T12:07:10.833Z,67.39
2019-05-15T12:10:28.912Z,65.74
2019-05-15T12:13:38.144Z,67.68
2019-05-15T12:17:09.615Z,67.40
2019-05-15T12:20:13.265Z,68.23
2019-05-15T12:23:29.889Z,68.29
2019-05-15T12:26:48.880Z,69.53
2019-05-15T12:30:05.525Z,68.38
2019-05-15T12:33:11.304Z,69.25
2019-05-15T12:36:46.068Z,69.44
2019-05-15T12:39:30.390Z,68.34
2019-05-15T13:02:13.461Z,65.20
2019-05-15T13:05:20.836Z,66.73
2019-05-15T13:08:29.063Z,63.50
2019-05-15T13:11:37.809Z,64.25
2019-05-15T13:14:45.192Z,58.87
2019-05-15T13:17:53.753Z,59.42
2019-05-15T13:21:01.420Z,62.48
2019-05-15T13:24:08.703Z,56.55
2019-05-15T13:27:18.221Z,57.24
2019-05-15T13:30:25.806Z,56.34
2019-05-15T13:33:33.201Z,60.12
2019-05-15T13:36:40.492Z,60.30
2019-05-15T13:39:48.522Z,63.78
2019-05-15T13:42:56.020Z,62.03
2019-05-15T13:46:03.488Z,58.05
2019-05-15T13:49:10.850Z,56.80
2019-05-15T13:52:18.790Z,57.45
2019-05-15T13:55:42.441Z,59.26
2019-05-15T13:58:58.540Z,59.41
2019-05-15T14:02:14.617Z,59.67
2019-05-15T14:05:38.430Z,60.60
2019-05-15T14:08:48.537Z,55.39
2019-05-15T14:12:12.475Z,55.78
2019-05-15T14:15:27.768Z,59.11
2019-05-15T14:18:44.422Z,60.37
2019-05-15T14:22:01.115Z,61.38
2019-05-15T14:25:18.200Z,64.45
2019-05-15T14:28:28.186Z,66.01
2019-05-15T14:31:36.550Z,62.58
2019-05-15T14:34:43.913Z,61.93
2019-05-15T14:38:02.575Z,62.49
2019-05-15T14:41:00.420Z,62.97
2019-05-15T14:44:17.447Z,63.57
2019-05-15T14:47:16.039Z,65.16
2019-05-15T14:50:23.470Z,65.12
2019-05-15T14:53:41.754Z,65.68
2019-05-15T14:56:48.695Z,65.26
2019-05-15T14:59:58.019Z,63.05
2019-05-15T15:03:14.733Z,58.65
2019-05-15T15:06:31.273Z,57.02
2019-05-15T15:09:38.648Z,57.74
2019-05-15T15:13:04.275Z,56.84
2019-05-15T15:16:21.523Z,56.92
2019-05-15T15:19:40.398Z,58.77
2019-05-15T15:22:59.822Z,56.60
2019-05-15T15:26:08.231Z,56.98
2019-05-15T15:29:15.675Z,53.97
2019-05-15T15:32:22.850Z,53.20
2019-05-15T15:35:30.357Z,56.23
2019-05-15T15:38:48.401Z,51.28
2019-05-15T15:41:57.846Z,50.70
2019-05-15T15:45:14.571Z,50.90
2019-05-15T15:48:21.470Z,52.43
2019-05-15T15:51:28.631Z,51.55
2019-05-15T15:54:45.754Z,51.53
2019-05-15T15:58:02.495Z,53.01
2019-05-15T16:01:25.697Z,51.81
2019-05-15T16:04:40.413Z,49.04
2019-05-15T16:08:00.164Z,48.20
2019-05-15T16:11:19.361Z,51.12
2019-05-15T16:14:38.696Z,48.98
2019-05-15T16:18:03.804Z,50.11
2019-05-15T16:21:22.022Z,51.71
2019-05-15T16:24:29.437Z,52.24
2019-05-15T16:27:54.635Z,51.03
2019-05-15T16:31:18.636Z,51.83
2019-05-15T16:34:28.369Z,52.69
2019-05-15T16:37:44.701Z,48.54
2019-05-15T16:41:09.175Z,49.58
2019-05-15T16:44:16.346Z,48.53
2019-05-15T16:47:23.796Z,48.58
2019-05-15T16:50:42.890Z,49.27
2019-05-15T16:53:50.151Z,49.80
2019-05-15T16:57:15.211Z,47.91
2019-05-15T17:00:23.018Z,49.63
2019-05-15T17:03:30.540Z,50.63
2019-05-15T17:06:38.736Z,52.18
2019-05-15T17:10:03.912Z,51.32
2019-05-15T17:13:23.025Z,50.22
2019-05-15T17:16:42.713Z,49.66
2019-05-15T17:20:01.990Z,52.98
2019-05-15T17:23:18.883Z,53.38
2019-05-15T17:26:28.768Z,53.09
2019-05-15T17:29:49.070Z,52.10
2019-05-15T17:32:56.567Z,51.79
2019-05-15T17:36:04.440Z,51.95
2019-05-15T17:39:12.236Z,50.83
2019-05-15T17:42:19.436Z,52.19
2019-05-15T17:45:28.303Z,50.97
2019-05-15T17:48:35.864Z,48.87
2019-05-15T17:51:43.225Z,50.18
2019-05-15T17:55:08.627Z,50.51
2019-05-15T17:58:28.818Z,53.25
2019-05-15T18:01:38.110Z,50.98
2019-05-15T18:04:44.338Z,47.90
2019-05-15T18:07:51.799Z,45.61
2019-05-15T18:10:59.428Z,44.63
2019-05-15T18:14:08.866Z,45.28
2019-05-15T18:17:26.824Z,41.66
2019-05-15T18:20:45.539Z,41.23
2019-05-15T18:24:11.176Z,43.53
2019-05-15T18:27:18.697Z,42.58
2019-05-15T18:30:38.973Z,41.76
2019-05-15T18:33:53.962Z,42.12
2019-05-15T18:36:57.749Z,43.22
2019-05-15T18:40:18.949Z,42.86
2019-05-15T18:43:37.739Z,42.98
2019-05-15T18:46:45.256Z,43.42
2019-05-15T18:50:04.284Z,44.40
2019-05-15T18:53:01.589Z,44.02
2019-05-15T18:56:09.173Z,44.50
2019-05-15T18:59:17.712Z,44.88
2019-05-15T19:02:25.382Z,44.66
2019-05-15T19:05:44.629Z,45.43
2019-05-15T19:09:05.277Z,45.46
2019-05-15T19:12:12.732Z,46.00
2019-05-15T19:15:20.072Z,46.71
2019-05-15T19:18:44.928Z,46.88
2019-05-15T19:21:52.461Z,46.63
2019-05-15T19:25:17.957Z,46.71
2019-05-15T19:28:25.378Z,47.33
2019-05-15T19:31:32.747Z,47.39
2019-05-15T19:34:40.255Z,47.64
2019-05-15T19:37:48.895Z,48.38
2019-05-15T19:41:02.311Z,48.30
2019-05-15T19:44:05.479Z,48.49
2019-05-15T19:47:30.842Z,49.19
2019-05-15T19:50:37.705Z,49.70
2019-05-15T19:53:44.971Z,49.94
2019-05-15T19:57:04.426Z,50.75
2019-05-15T20:00:54.769Z,50.73
2019-05-15T20:04:03.904Z,51.12
2019-05-15T20:07:50.002Z,50.81
2019-05-15T20:11:27.760Z,51.42
2019-05-15T20:22:43.046Z,52.26
2019-05-15T20:25:58.136Z,52.85
2019-05-15T20:29:18.072Z,53.78
2019-05-15T20:32:41.024Z,53.78
2019-05-15T20:36:17.862Z,54.61
2019-05-15T20:39:20.926Z,54.73
2019-05-15T20:42:48.417Z,55.56
2019-05-15T20:46:08.424Z,56.13
2019-05-15T20:49:17.891Z,56.99
2019-05-15T20:52:23.798Z,57.48
2019-05-15T20:55:31.168Z,57.91
2019-05-15T20:58:38.548Z,58.69
2019-05-15T21:01:48.301Z,59.08
2019-05-15T21:04:55.025Z,59.81
2019-05-15T21:08:02.492Z,60.46
2019-05-15T21:11:11.722Z,61.48
2019-05-15T21:14:39.823Z,62.02
2019-05-15T21:17:45.981Z,63.15
2019-05-15T21:20:58.884Z,63.42
2019-05-15T21:24:12.941Z,64.13
2019-05-15T21:27:33.480Z,64.66
2019-05-15T21:30:48.864Z,65.43
2019-05-15T21:33:59.666Z,66.18
2019-05-15T21:37:18.780Z,66.98
2019-05-15T21:40:50.968Z,67.14
2019-05-15T21:44:08.699Z,68.73
2019-05-15T21:47:14.627Z,69.49
2019-05-15T21:50:34.772Z,70.93
2019-05-15T21:53:42.167Z,70.64
2019-05-15T21:56:50.471Z,71.41
2019-05-15T21:59:57.821Z,73.25
2019-05-15T22:03:05.918Z,72.96
2019-05-15T22:06:25.102Z,72.82
2019-05-15T22:09:50.213Z,71.67
2019-05-15T22:13:15.632Z,74.00
2019-05-15T22:16:34.838Z,74.41
2019-05-15T22:19:54.512Z,75.67
2019-05-15T22:23:13.791Z,74.82
2019-05-15T22:26:21.771Z,75.51
2019-05-15T22:29:28.862Z,76.68
2019-05-15T22:32:41.196Z,77.32
2019-05-15T22:35:45.570Z,77.43
2019-05-15T22:38:52.981Z,77.82
2019-05-15T22:42:51.671Z,78.87
2019-05-15T22:46:12.286Z,79.03
2019-05-15T22:49:31.306Z,78.62
2019-05-15T22:52:50.472Z,78.87
2019-05-15T22:56:09.966Z,79.26
2019-05-15T22:59:34.505Z,80.08
2019-05-15T23:02:40.781Z,79.70
2019-05-15T23:05:47.629Z,80.83
2019-05-15T23:08:55.125Z,80.58
2019-05-15T23:12:02.462Z,79.19
2019-05-15T23:15:09.884Z,80.65
2019-05-15T23:18:17.928Z,80.75
2019-05-15T23:21:25.496Z,82.07
2019-05-15T23:24:33.029Z,81.23
2019-05-15T23:27:40.430Z,81.91
2019-05-15T23:30:48.538Z,82.86
2019-05-15T23:33:55.991Z,83.07
2019-05-15T23:37:03.296Z,83.03
2019-05-15T23:40:11.130Z,82.54
2019-05-15T23:43:18.933Z,83.69
2019-05-15T23:46:25.216Z,83.74
2019-05-15T23:49:32.486Z,83.54
2019-05-15T23:52:39.733Z,84.68
2019-05-15T23:55:47.187Z,84.75
2019-05-15T23:58:54.533Z,85.95
